createdAt,value
2023-03-15T00:01:27.315Z,3.50
2023-03-15T00:03:56.895Z,3.40
2023-03-15T00:06:23.582Z,3.40
2023-03-15T00:08:51.952Z,3.30
2023-03-15T00:11:19.211Z,3.50
2023-03-15T00:13:46.516Z,3.50
2023-03-15T00:16:17.628Z,3.50
2023-03-15T00:18:48.245Z,3.60
2023-03-15T00:21:15.230Z,3.40
2023-03-15T00:23:41.943Z,3.70
2023-03-15T00:26:08.574Z,3.40
2023-03-15T00:28:35.181Z,3.40
2023-03-15T00:31:14.005Z,3.40
2023-03-15T00:33:41.475Z,3.50
2023-03-15T00:36:09.920Z,3.40
2023-03-15T00:38:38.196Z,3.40
2023-03-15T00:41:10.370Z,3.40
2023-03-15T00:43:37.034Z,3.50
2023-03-15T00:46:04.798Z,3.40
2023-03-15T00:48:32.140Z,3.40
2023-03-15T00:51:10.963Z,3.50
2023-03-15T00:53:39.310Z,3.50
2023-03-15T00:56:08.672Z,3.40
2023-03-15T00:58:35.513Z,3.30
2023-03-15T01:01:09.837Z,3.30
2023-03-15T01:03:37.153Z,3.40
2023-03-15T01:06:12.070Z,3.40
2023-03-15T01:08:39.148Z,3.30
2023-03-15T01:11:08.187Z,3.50
2023-03-15T01:13:35.718Z,3.50
2023-03-15T01:16:02.826Z,3.60
2023-03-15T01:18:29.818Z,3.50
2023-03-15T01:20:56.582Z,3.30
2023-03-15T01:23:23.306Z,3.30
2023-03-15T01:25:50.029Z,3.20
2023-03-15T01:28:16.716Z,3.20
2023-03-15T01:30:52.781Z,3.20
2023-03-15T01:33:20.860Z,3.20
2023-03-15T01:35:48.230Z,3.30
2023-03-15T01:38:15.217Z,3.20
2023-03-15T01:40:44.008Z,3.30
2023-03-15T01:43:22.529Z,3.40
2023-03-15T01:46:04.162Z,3.30
2023-03-15T01:48:44.512Z,3.20
2023-03-15T01:51:22.903Z,3.30
2023-03-15T01:53:56.122Z,3.20
2023-03-15T01:56:23.832Z,3.10
2023-03-15T01:58:52.663Z,3.30
2023-03-15T02:01:20.411Z,3.10
2023-03-15T02:03:51.878Z,1.50
2023-03-15T02:06:20.856Z,3.00
2023-03-15T02:08:54.889Z,3.20
2023-03-15T02:11:24.186Z,2.60
2023-03-15T02:13:51.600Z,3.10
2023-03-15T02:16:18.993Z,3.10
2023-03-15T02:18:45.732Z,3.10
2023-03-15T02:21:22.988Z,3.10
2023-03-15T02:24:07.294Z,3.20
2023-03-15T02:26:48.187Z,2.90
2023-03-15T02:29:15.054Z,3.00
2023-03-15T02:31:41.901Z,3.00
2023-03-15T02:34:08.745Z,3.00
2023-03-15T02:36:36.938Z,3.00
2023-03-15T02:39:18.108Z,3.00
2023-03-15T02:41:49.292Z,3.00
2023-03-15T02:44:21.611Z,3.10
2023-03-15T02:46:51.298Z,3.00
2023-03-15T02:49:21.739Z,3.10
2023-03-15T02:51:48.442Z,3.20
2023-03-15T02:54:15.158Z,3.10
2023-03-15T02:56:41.888Z,3.10
2023-03-15T02:59:08.551Z,3.00
2023-03-15T03:01:37.259Z,3.00
2023-03-15T03:04:04.253Z,2.90
2023-03-15T03:06:30.892Z,2.90
2023-03-15T03:08:57.627Z,3.00
2023-03-15T03:11:24.339Z,2.90
2023-03-15T03:13:51.190Z,3.00
2023-03-15T03:16:17.935Z,3.00
2023-03-15T03:18:44.652Z,3.00
2023-03-15T03:21:11.260Z,3.10
2023-03-15T03:23:37.997Z,3.20
2023-03-15T03:26:18.737Z,3.20
2023-03-15T03:28:46.916Z,3.20
2023-03-15T03:31:22.850Z,3.20
2023-03-15T03:33:49.545Z,3.20
2023-03-15T03:36:16.833Z,3.10
2023-03-15T03:38:45.981Z,3.00
2023-03-15T03:41:14.646Z,3.00
2023-03-15T03:43:41.371Z,3.00
2023-03-15T03:46:08.420Z,3.00
2023-03-15T03:48:35.265Z,3.00
2023-03-15T03:51:01.970Z,3.00
2023-03-15T03:53:28.575Z,2.90
2023-03-15T03:55:55.484Z,3.10
2023-03-15T03:58:22.455Z,2.70
2023-03-15T04:00:54.176Z,2.80
2023-03-15T04:03:26.988Z,2.60
2023-03-15T04:05:58.279Z,2.60
2023-03-15T04:08:26.124Z,2.80
2023-03-15T04:10:54.608Z,2.70
2023-03-15T04:13:22.410Z,2.80
2023-03-15T04:15:49.176Z,2.90
2023-03-15T04:18:16.308Z,3.10
2023-03-15T04:20:49.272Z,3.10
2023-03-15T04:23:19.173Z,3.30
2023-03-15T04:25:49.800Z,3.20
2023-03-15T04:28:17.256Z,3.20
2023-03-15T04:30:44.111Z,3.20
2023-03-15T04:33:11.155Z,3.10
2023-03-15T04:35:39.132Z,3.10
2023-03-15T04:38:06.622Z,3.20
2023-03-15T04:40:35.107Z,3.30
2023-03-15T04:43:04.462Z,3.20
2023-03-15T04:45:31.929Z,3.20
2023-03-15T04:47:59.234Z,3.30
2023-03-15T04:50:26.083Z,3.40
2023-03-15T04:52:52.994Z,3.20
2023-03-15T04:55:19.648Z,3.30
2023-03-15T04:57:46.320Z,3.30
2023-03-15T05:00:13.820Z,3.20
2023-03-15T05:02:41.905Z,3.10
2023-03-15T05:05:12.620Z,3.10
2023-03-15T05:07:39.674Z,3.20
2023-03-15T05:10:06.874Z,3.00
2023-03-15T05:12:36.484Z,3.00
2023-03-15T05:15:03.335Z,3.00
2023-03-15T05:17:30.131Z,3.00
2023-03-15T05:19:56.831Z,3.10
2023-03-15T05:22:25.655Z,3.00
2023-03-15T05:24:53.655Z,3.00
2023-03-15T05:27:20.848Z,3.90
2023-03-15T05:29:47.718Z,3.00
2023-03-15T05:32:14.377Z,3.00
2023-03-15T05:34:42.788Z,3.00
2023-03-15T05:37:10.251Z,3.00
2023-03-15T05:39:36.843Z,3.00
2023-03-15T05:42:03.761Z,3.10
2023-03-15T05:44:30.333Z,3.00
2023-03-15T05:46:56.916Z,2.90
2023-03-15T05:49:23.499Z,3.70
2023-03-15T05:51:50.078Z,2.90
2023-03-15T05:54:16.721Z,2.90
2023-03-15T05:56:43.399Z,3.00
2023-03-15T05:59:09.981Z,3.10
2023-03-15T06:01:36.607Z,2.90
2023-03-15T06:04:03.548Z,3.00
2023-03-15T06:06:33.212Z,3.00
2023-03-15T06:09:00.682Z,3.30
2023-03-15T06:11:27.325Z,3.00
2023-03-15T06:13:53.984Z,3.00
2023-03-15T06:16:20.727Z,3.00
2023-03-15T06:18:47.528Z,3.90
2023-03-15T06:21:14.136Z,2.80
2023-03-15T06:23:40.781Z,2.80
2023-03-15T06:26:07.562Z,2.90
2023-03-15T06:28:34.461Z,2.90
2023-03-15T06:31:08.662Z,2.90
2023-03-15T06:33:35.473Z,3.40
2023-03-15T06:36:02.133Z,4.80
2023-03-15T06:38:28.781Z,5.70
2023-03-15T06:40:55.983Z,5.30
2023-03-15T06:43:22.756Z,4.60
2023-03-15T06:45:49.415Z,4.20
2023-03-15T06:48:16.144Z,3.80
2023-03-15T06:50:47.386Z,3.60
2023-03-15T06:53:15.011Z,3.70
2023-03-15T06:55:41.720Z,3.50
2023-03-15T06:58:08.406Z,3.40
2023-03-15T07:00:35.295Z,3.40
2023-03-15T07:03:01.978Z,5.10
2023-03-15T07:05:28.701Z,4.50
2023-03-15T07:07:55.399Z,4.70
2023-03-15T07:10:22.155Z,4.70
2023-03-15T07:12:48.726Z,4.20
2023-03-15T07:15:17.166Z,4.30
2023-03-15T07:17:44.141Z,4.00
2023-03-15T07:20:11.436Z,3.60
2023-03-15T07:22:38.609Z,5.80
2023-03-15T07:25:07.381Z,3.30
2023-03-15T07:27:34.218Z,3.40
2023-03-15T07:30:01.180Z,3.30
2023-03-15T07:32:27.927Z,3.10
2023-03-15T07:34:58.117Z,2.90
2023-03-15T07:37:24.691Z,2.90
2023-03-15T07:39:51.320Z,3.00
2023-03-15T07:42:17.968Z,3.00
2023-03-15T07:44:44.555Z,3.00
2023-03-15T07:47:11.275Z,3.20
2023-03-15T07:49:37.909Z,3.00
2023-03-15T07:52:05.002Z,3.10
2023-03-15T07:54:31.995Z,3.10
2023-03-15T07:56:58.656Z,3.30
2023-03-15T07:59:25.611Z,3.30
2023-03-15T08:01:52.263Z,3.40
2023-03-15T08:04:19.024Z,3.40
2023-03-15T08:06:45.642Z,3.50
2023-03-15T08:09:12.253Z,3.50
2023-03-15T08:11:38.862Z,3.60
2023-03-15T08:14:05.810Z,3.80
2023-03-15T08:16:32.511Z,4.20
2023-03-15T08:18:59.212Z,4.50
2023-03-15T08:21:25.808Z,4.50
2023-03-15T08:23:52.472Z,4.30
2023-03-15T08:26:19.064Z,4.30
2023-03-15T08:28:45.667Z,4.40
2023-03-15T08:31:13.964Z,4.60
2023-03-15T08:33:40.912Z,4.40
2023-03-15T08:36:07.816Z,4.20
2023-03-15T08:38:34.756Z,4.20
2023-03-15T08:41:03.538Z,4.20
2023-03-15T08:43:30.196Z,4.40
2023-03-15T08:46:01.201Z,4.20
2023-03-15T08:48:28.641Z,4.30
2023-03-15T08:50:55.278Z,4.30
2023-03-15T08:53:21.923Z,4.30
2023-03-15T08:55:49.604Z,4.30
2023-03-15T08:58:16.578Z,4.50
2023-03-15T09:00:43.186Z,4.60
2023-03-15T09:03:10.016Z,4.80
2023-03-15T09:05:37.050Z,4.70
2023-03-15T09:08:04.607Z,4.80
2023-03-15T09:10:31.293Z,4.90
2023-03-15T09:12:58.004Z,4.90
2023-03-15T09:15:24.707Z,4.60
2023-03-15T09:17:51.776Z,2.20
2023-03-15T09:20:21.953Z,4.30
2023-03-15T09:22:54.105Z,4.00
2023-03-15T09:25:22.600Z,-0.30
2023-03-15T09:27:49.530Z,3.40
2023-03-15T09:30:16.694Z,3.30
2023-03-15T09:32:44.140Z,3.40
2023-03-15T09:35:14.560Z,3.30
2023-03-15T09:37:42.384Z,3.20
2023-03-15T09:40:26.232Z,3.60
2023-03-15T09:43:03.968Z,3.60
2023-03-15T09:45:48.766Z,3.70
2023-03-15T09:48:32.227Z,3.80
2023-03-15T09:51:06.623Z,3.90
2023-03-15T09:53:33.824Z,4.00
2023-03-15T09:56:00.556Z,4.30
2023-03-15T09:58:35.670Z,4.60
2023-03-15T10:01:13.283Z,4.60
2023-03-15T10:03:50.644Z,4.60
2023-03-15T10:06:29.091Z,4.70
2023-03-15T10:09:00.274Z,4.60
2023-03-15T10:11:33.448Z,4.30
2023-03-15T10:14:23.580Z,4.00
2023-03-15T10:16:52.021Z,6.10
2023-03-15T10:19:39.444Z,3.70
2023-03-15T10:22:25.477Z,3.70
2023-03-15T10:24:55.262Z,3.80
2023-03-15T10:27:24.224Z,4.50
2023-03-15T10:29:54.960Z,4.00
2023-03-15T10:32:27.382Z,4.10
2023-03-15T10:34:56.935Z,4.10
2023-03-15T10:37:24.669Z,4.30
2023-03-15T10:39:57.205Z,4.60
2023-03-15T10:42:32.917Z,4.80
2023-03-15T10:45:19.777Z,4.90
2023-03-15T10:47:59.439Z,5.00
2023-03-15T10:50:32.788Z,5.10
2023-03-15T10:53:08.728Z,4.80
2023-03-15T10:56:00.547Z,4.80
2023-03-15T10:58:34.525Z,4.60
2023-03-15T11:01:22.515Z,4.60
2023-03-15T11:04:14.729Z,4.70
2023-03-15T11:06:47.429Z,4.70
2023-03-15T11:09:22.066Z,4.70
2023-03-15T11:11:55.813Z,4.90
2023-03-15T11:14:22.537Z,4.90
2023-03-15T11:16:52.844Z,5.00
2023-03-15T11:19:22.589Z,5.10
2023-03-15T11:21:51.315Z,5.20
2023-03-15T11:24:29.802Z,5.30
2023-03-15T11:27:01.583Z,7.70
2023-03-15T11:29:37.584Z,5.80
2023-03-15T11:32:19.254Z,5.60
2023-03-15T11:35:04.640Z,5.50
2023-03-15T11:37:55.166Z,5.60
2023-03-15T11:40:41.593Z,5.70
2023-03-15T11:43:17.656Z,5.70
2023-03-15T11:46:04.565Z,5.70
2023-03-15T11:48:43.695Z,5.60
2023-03-15T11:51:12.749Z,5.40
2023-03-15T11:53:47.401Z,5.30
2023-03-15T11:56:25.111Z,5.20
2023-03-15T11:59:12.892Z,5.00
2023-03-15T12:01:50.234Z,6.20
2023-03-15T12:04:27.778Z,4.60
2023-03-15T12:06:56.719Z,4.60
2023-03-15T12:09:32.544Z,4.60
2023-03-15T12:12:01.677Z,4.60
2023-03-15T12:14:34.553Z,4.50
2023-03-15T12:17:29.142Z,4.50
2023-03-15T12:20:11.907Z,4.50
2023-03-15T12:22:43.539Z,4.60
2023-03-15T12:25:15.061Z,3.60
2023-03-15T12:27:49.716Z,5.10
2023-03-15T12:30:33.757Z,5.40
2023-03-15T12:33:02.669Z,5.60
2023-03-15T12:35:38.355Z,5.70
2023-03-15T12:38:12.948Z,5.60
2023-03-15T12:40:50.008Z,5.60
2023-03-15T12:43:44.859Z,5.40
2023-03-15T12:46:37.007Z,5.40
2023-03-15T12:49:14.352Z,5.40
2023-03-15T12:51:53.828Z,5.60
2023-03-15T12:54:22.615Z,5.70
2023-03-15T12:56:54.400Z,5.80
2023-03-15T12:59:51.500Z,5.90
2023-03-15T13:02:43.868Z,6.00
2023-03-15T13:05:19.071Z,5.90
2023-03-15T13:08:08.778Z,6.00
2023-03-15T13:11:11.715Z,6.10
2023-03-15T13:14:19.632Z,6.10
2023-03-15T13:17:07.114Z,6.10
2023-03-15T13:19:46.004Z,6.20
2023-03-15T13:22:54.955Z,6.30
2023-03-15T13:25:32.065Z,6.40
2023-03-15T13:28:22.546Z,6.60
2023-03-15T13:30:53.816Z,6.80
2023-03-15T13:33:22.725Z,6.80
2023-03-15T13:35:55.285Z,7.00
2023-03-15T13:38:29.838Z,7.10
2023-03-15T13:40:58.190Z,7.10
2023-03-15T13:43:26.862Z,7.00
2023-03-15T13:45:57.340Z,7.00
2023-03-15T13:48:26.932Z,7.10
2023-03-15T13:50:55.347Z,7.10
2023-03-15T13:53:39.498Z,7.10
2023-03-15T13:56:17.009Z,7.10
2023-03-15T13:58:43.848Z,7.20
2023-03-15T14:01:12.735Z,7.20
2023-03-15T14:03:43.335Z,7.20
2023-03-15T14:06:21.763Z,7.30
2023-03-15T14:08:49.723Z,7.50
2023-03-15T14:11:26.100Z,7.50
2023-03-15T14:13:57.667Z,7.30
2023-03-15T14:17:01.109Z,7.40
2023-03-15T14:19:32.629Z,7.20
2023-03-15T14:22:01.617Z,7.30
2023-03-15T14:24:38.686Z,7.40
2023-03-15T14:27:14.611Z,7.60
2023-03-15T14:29:51.410Z,7.50
2023-03-15T14:32:28.921Z,7.50
2023-03-15T14:35:23.067Z,7.50
2023-03-15T14:38:07.959Z,7.60
2023-03-15T14:40:39.131Z,7.90
2023-03-15T14:43:07.516Z,7.80
2023-03-15T14:45:37.249Z,8.00
2023-03-15T14:48:26.576Z,8.60
2023-03-15T14:50:53.606Z,9.60
2023-03-15T14:53:25.261Z,10.50
2023-03-15T14:55:52.334Z,11.10
2023-03-15T14:58:20.989Z,11.90
2023-03-15T15:00:50.088Z,12.00
2023-03-15T15:03:39.471Z,10.60
2023-03-15T15:06:08.820Z,8.80
2023-03-15T15:08:38.493Z,8.30
2023-03-15T15:11:05.736Z,7.80
2023-03-15T15:13:32.612Z,7.60
2023-03-15T15:15:59.363Z,7.70
2023-03-15T15:18:28.689Z,7.70
2023-03-15T15:20:56.566Z,7.70
2023-03-15T15:23:32.139Z,7.60
2023-03-15T15:26:04.088Z,7.60
2023-03-15T15:28:36.435Z,7.50
2023-03-15T15:31:05.344Z,7.50
2023-03-15T15:33:32.009Z,7.30
2023-03-15T15:35:58.730Z,7.30
2023-03-15T15:38:33.132Z,7.30
2023-03-15T15:41:00.060Z,7.20
2023-03-15T15:43:26.740Z,7.30
2023-03-15T15:45:53.531Z,7.30
2023-03-15T15:48:20.436Z,7.40
2023-03-15T15:50:47.152Z,7.40
2023-03-15T15:53:17.787Z,7.40
2023-03-15T15:55:45.744Z,7.50
2023-03-15T15:58:13.861Z,7.50
2023-03-15T16:00:40.454Z,7.40
2023-03-15T16:03:16.128Z,7.40
2023-03-15T16:05:42.893Z,7.20
2023-03-15T16:08:16.902Z,7.20
2023-03-15T16:10:44.870Z,7.20
2023-03-15T16:13:12.188Z,7.40
2023-03-15T16:15:38.872Z,9.30
2023-03-15T16:18:14.634Z,7.30
2023-03-15T16:20:42.012Z,7.20
2023-03-15T16:23:20.714Z,7.20
2023-03-15T16:25:55.407Z,7.20
2023-03-15T16:28:25.988Z,7.30
2023-03-15T16:30:52.682Z,7.50
2023-03-15T16:33:21.543Z,7.30
2023-03-15T16:35:50.191Z,7.30
2023-03-15T16:38:24.199Z,7.30
2023-03-15T16:40:53.000Z,7.30
2023-03-15T16:43:19.919Z,7.30
2023-03-15T16:45:46.878Z,7.20
2023-03-15T16:48:14.330Z,7.10
2023-03-15T16:50:42.331Z,7.00
2023-03-15T16:53:12.436Z,7.00
2023-03-15T16:55:39.591Z,6.90
2023-03-15T16:58:19.009Z,6.90
2023-03-15T17:00:47.946Z,6.90
2023-03-15T17:03:15.573Z,6.80
2023-03-15T17:05:45.748Z,6.80
2023-03-15T17:08:16.345Z,9.40
2023-03-15T17:10:43.220Z,6.70
2023-03-15T17:13:14.162Z,6.70
2023-03-15T17:15:40.974Z,6.60
2023-03-15T17:18:18.292Z,6.60
2023-03-15T17:20:47.131Z,6.50
2023-03-15T17:23:14.115Z,6.60
2023-03-15T17:25:41.305Z,6.50
2023-03-15T17:28:08.104Z,6.90
2023-03-15T17:30:36.831Z,7.60
2023-03-15T17:33:04.589Z,8.10
2023-03-15T17:35:35.004Z,8.20
2023-03-15T17:38:06.783Z,8.00
2023-03-15T17:40:35.787Z,7.50
2023-03-15T17:43:04.005Z,7.20
2023-03-15T17:45:33.272Z,7.10
2023-03-15T17:48:00.223Z,7.30
2023-03-15T17:50:30.358Z,6.90
2023-03-15T17:53:18.506Z,6.80
2023-03-15T17:55:47.796Z,6.70
2023-03-15T17:58:20.029Z,6.70
2023-03-15T18:00:48.456Z,6.70
2023-03-15T18:03:16.789Z,6.70
2023-03-15T18:05:43.916Z,6.60
2023-03-15T18:08:18.170Z,6.70
2023-03-15T18:10:45.539Z,6.50
2023-03-15T18:13:17.952Z,6.50
2023-03-15T18:15:45.877Z,6.60
2023-03-15T18:18:12.614Z,6.40
2023-03-15T18:20:39.231Z,6.60
2023-03-15T18:23:05.959Z,6.40
2023-03-15T18:25:34.921Z,6.30
2023-03-15T18:28:02.041Z,6.30
2023-03-15T18:30:33.922Z,6.30
2023-03-15T18:33:01.201Z,6.20
2023-03-15T18:35:31.440Z,6.10
2023-03-15T18:37:58.624Z,6.10
2023-03-15T18:40:29.234Z,6.10
2023-03-15T18:42:57.103Z,6.00
2023-03-15T18:45:30.696Z,6.00
2023-03-15T18:47:59.723Z,6.00
2023-03-15T18:50:27.464Z,6.00
2023-03-15T18:52:54.656Z,6.10
2023-03-15T18:55:24.434Z,6.00
2023-03-15T18:57:53.254Z,6.00
2023-03-15T19:00:29.406Z,6.00
2023-03-15T19:02:58.779Z,6.00
2023-03-15T19:05:26.201Z,6.10
2023-03-15T19:07:53.038Z,5.90
2023-03-15T19:10:21.379Z,5.90
2023-03-15T19:12:48.642Z,5.90
2023-03-15T19:15:17.492Z,5.90
2023-03-15T19:17:49.319Z,6.00
2023-03-15T19:20:18.370Z,4.50
2023-03-15T19:22:45.207Z,5.90
2023-03-15T19:25:13.824Z,5.90
2023-03-15T19:27:44.390Z,5.90
2023-03-15T19:30:18.040Z,5.80
2023-03-15T19:32:46.664Z,5.80
2023-03-15T19:35:13.482Z,5.80
2023-03-15T19:37:42.361Z,5.80
2023-03-15T19:40:10.032Z,5.80
2023-03-15T19:42:36.612Z,5.70
2023-03-15T19:45:03.639Z,5.70
2023-03-15T19:47:30.260Z,5.70
2023-03-15T19:49:57.287Z,5.70
2023-03-15T19:52:23.991Z,5.70
2023-03-15T19:54:51.701Z,5.70
2023-03-15T19:57:18.317Z,5.70
2023-03-15T19:59:45.099Z,5.70
2023-03-15T20:02:13.116Z,5.70
2023-03-15T20:04:40.650Z,5.70
2023-03-15T20:07:10.930Z,5.60
2023-03-15T20:09:38.909Z,5.60
2023-03-15T20:12:06.626Z,5.70
2023-03-15T20:14:33.633Z,5.60
2023-03-15T20:17:00.530Z,5.70
2023-03-15T20:19:27.363Z,5.60
2023-03-15T20:21:53.972Z,5.60
2023-03-15T20:24:20.646Z,5.60
2023-03-15T20:26:47.358Z,5.60
2023-03-15T20:29:13.994Z,5.60
2023-03-15T20:31:40.744Z,5.50
2023-03-15T20:34:09.008Z,5.60
2023-03-15T20:36:36.170Z,5.60
2023-03-15T20:39:05.340Z,5.50
2023-03-15T20:41:33.212Z,5.60
2023-03-15T20:44:00.347Z,5.50
2023-03-15T20:46:27.056Z,5.40
2023-03-15T20:48:53.695Z,5.50
2023-03-15T20:51:20.896Z,5.50
2023-03-15T20:53:48.114Z,5.40
2023-03-15T20:56:14.823Z,5.40
2023-03-15T20:58:41.914Z,5.30
2023-03-15T21:01:13.018Z,5.30
2023-03-15T21:03:40.281Z,5.30
2023-03-15T21:06:07.372Z,5.30
2023-03-15T21:08:34.769Z,5.20
2023-03-15T21:11:03.528Z,5.30
2023-03-15T21:13:30.291Z,5.20
2023-03-15T21:15:58.904Z,5.20
2023-03-15T21:18:25.722Z,5.20
2023-03-15T21:20:58.242Z,5.20
2023-03-15T21:23:27.776Z,5.20
2023-03-15T21:25:55.604Z,5.30
2023-03-15T21:28:23.220Z,5.20
2023-03-15T21:30:53.980Z,4.40
2023-03-15T21:33:23.010Z,5.20
2023-03-15T21:35:50.074Z,3.50
2023-03-15T21:38:17.028Z,5.10
2023-03-15T21:40:48.232Z,5.10
2023-03-15T21:43:14.869Z,5.10
2023-03-15T21:45:42.150Z,5.10
2023-03-15T21:48:08.923Z,5.10
2023-03-15T21:50:36.484Z,5.30
2023-03-15T21:53:03.592Z,5.10
2023-03-15T21:55:33.506Z,5.10
2023-03-15T21:58:04.806Z,5.10
2023-03-15T22:00:32.484Z,5.20
2023-03-15T22:02:59.139Z,3.20
2023-03-15T22:05:25.796Z,5.10
2023-03-15T22:07:52.431Z,5.10
2023-03-15T22:10:19.798Z,5.20
2023-03-15T22:12:46.459Z,5.20
2023-03-15T22:15:15.432Z,5.10
2023-03-15T22:17:42.097Z,5.10
2023-03-15T22:20:13.079Z,5.00
2023-03-15T22:22:39.711Z,5.10
2023-03-15T22:25:06.632Z,5.00
2023-03-15T22:27:33.204Z,5.10
2023-03-15T22:29:59.822Z,5.10
2023-03-15T22:32:26.447Z,5.00
2023-03-15T22:34:53.070Z,5.10
2023-03-15T22:37:19.741Z,5.10
2023-03-15T22:39:46.365Z,5.00
2023-03-15T22:42:12.960Z,5.00
2023-03-15T22:44:39.860Z,5.00
2023-03-15T22:47:07.098Z,4.80
2023-03-15T22:49:33.817Z,4.80
2023-03-15T22:52:00.600Z,4.80
2023-03-15T22:54:27.215Z,5.00
2023-03-15T22:56:53.825Z,4.90
2023-03-15T22:59:20.432Z,4.80
2023-03-15T23:01:47.063Z,4.80
2023-03-15T23:04:13.782Z,4.80
2023-03-15T23:06:40.395Z,4.90
2023-03-15T23:09:06.985Z,5.00
2023-03-15T23:11:33.606Z,5.10
2023-03-15T23:14:00.350Z,4.90
2023-03-15T23:16:27.090Z,4.70
2023-03-15T23:18:53.833Z,4.70
2023-03-15T23:21:20.834Z,3.90
2023-03-15T23:23:47.510Z,4.70
2023-03-15T23:26:16.625Z,4.70
2023-03-15T23:28:43.812Z,4.60
2023-03-15T23:31:10.451Z,4.50
2023-03-15T23:33:37.590Z,4.50
2023-03-15T23:36:06.900Z,4.50
2023-03-15T23:38:34.539Z,4.50
2023-03-15T23:41:01.985Z,4.50
2023-03-15T23:43:28.674Z,4.50
2023-03-15T23:45:59.950Z,6.90
2023-03-15T23:48:27.316Z,4.40
2023-03-15T23:50:55.196Z,4.30
2023-03-15T23:53:22.289Z,4.30
2023-03-15T23:55:49.014Z,4.30
2023-03-15T23:58:15.635Z,4.20
